Time;durP1;ratioP1;P1;durP2;ratioP2;P2;SDS_P1;SDS_P2;PMS_P1;PMS_P2;Temp;Humidity;BMP_temperature;BMP_pressure;BME280_temperature;BME280_humidity;BME280_pressure;Samples;Min_cycle;Max_cycle;Signal;HPM_P1;HPM_P2
2022/11/30 00:01:34;;;;;;;24.50;12.77;;;1.90;99.90;;;;;;5032559;28;20671;-81
2022/11/30 00:04:01;;;;;;;23.27;12.70;;;2.00;99.90;;;;;;5051365;28;20278;-79
2022/11/30 00:06:28;;;;;;;25.67;12.27;;;1.90;99.90;;;;;;5051985;28;20203;-81
2022/11/30 00:08:58;;;;;;;25.47;12.70;;;1.80;99.90;;;;;;5036815;28;20206;-80
2022/11/30 00:11:27;;;;;;;25.10;12.43;;;1.80;99.90;;;;;;5037627;28;20194;-81
2022/11/30 00:13:54;;;;;;;23.33;12.90;;;1.90;99.90;;;;;;5041223;28;20191;-81
2022/11/30 00:16:21;;;;;;;29.57;12.93;;;1.80;99.90;;;;;;5054698;28;20200;-81
2022/11/30 00:18:48;;;;;;;40.90;13.80;;;1.90;99.90;;;;;;5028516;28;20234;-81
2022/11/30 00:21:15;;;;;;;25.03;13.33;;;1.90;99.90;;;;;;5040074;28;20225;-81
2022/11/30 00:23:44;;;;;;;26.60;13.30;;;1.90;99.90;;;;;;5049202;28;20232;-84
2022/11/30 00:26:13;;;;;;;27.00;13.67;;;1.80;99.90;;;;;;5040268;28;20210;-80
2022/11/30 00:28:42;;;;;;;26.50;13.70;;;1.80;99.90;;;;;;5036007;28;20217;-85
2022/11/30 00:31:14;;;;;;;26.40;13.07;;;1.80;99.90;;;;;;5034728;28;20218;-86
2022/11/30 00:33:41;;;;;;;28.23;14.53;;;1.80;99.90;;;;;;5034117;28;20644;-85
2022/11/30 00:36:17;;;;;;;27.27;14.37;;;1.80;99.90;;;;;;5018134;28;20223;-85
2022/11/30 00:38:44;;;;;;;30.37;14.27;;;1.80;99.90;;;;;;5034814;28;20214;-82
2022/11/30 00:41:11;;;;;;;27.57;13.57;;;1.80;99.90;;;;;;5038471;28;20641;-82
2022/11/30 00:43:38;;;;;;;27.47;13.73;;;1.80;99.90;;;;;;5034712;28;20195;-80
2022/11/30 00:46:07;;;;;;;31.30;13.70;;;1.90;99.90;;;;;;5040193;28;20186;-85
2022/11/30 00:48:38;;;;;;;26.27;13.43;;;1.90;99.90;;;;;;5054075;28;20194;-85
2022/11/30 00:51:09;;;;;;;25.27;13.93;;;1.90;99.90;;;;;;5054206;28;20196;-93
2022/11/30 00:53:36;;;;;;;26.80;13.70;;;1.90;99.90;;;;;;5046100;28;20748;-93
2022/11/30 00:56:04;;;;;;;29.57;13.87;;;1.90;99.90;;;;;;5034279;28;20231;-92
2022/11/30 00:58:31;;;;;;;24.83;13.07;;;2.00;99.90;;;;;;5035294;28;20219;-88
2022/11/30 01:00:57;;;;;;;33.50;14.77;;;2.00;99.90;;;;;;5033925;28;20207;-91
2022/11/30 01:03:27;;;;;;;28.43;13.97;;;2.00;99.90;;;;;;5042890;28;20187;-86
2022/11/30 01:05:54;;;;;;;25.23;13.60;;;2.00;99.90;;;;;;5034450;28;20199;-83
2022/11/30 01:08:21;;;;;;;28.63;15.40;;;2.00;99.90;;;;;;5034515;28;20431;-92
2022/11/30 01:10:52;;;;;;;26.53;13.57;;;2.00;99.90;;;;;;5017603;28;20203;-92
2022/11/30 01:13:21;;;;;;;26.50;13.43;;;1.90;99.90;;;;;;5035107;28;20226;-94
2022/11/30 01:15:55;;;;;;;26.33;13.30;;;1.90;99.90;;;;;;5018381;28;20197;-93
2022/11/30 01:18:25;;;;;;;24.97;12.70;;;2.00;99.90;;;;;;5034843;28;20688;-93
2022/11/30 01:20:57;;;;;;;25.60;12.83;;;1.90;99.90;;;;;;5033394;28;20203;-92
2022/11/30 01:23:26;;;;;;;27.07;13.70;;;2.00;99.90;;;;;;5034686;28;20192;-85
2022/11/30 01:25:54;;;;;;;26.37;12.93;;;1.90;99.90;;;;;;5033311;28;20219;-86
2022/11/30 01:28:21;;;;;;;26.43;13.47;;;2.00;99.90;;;;;;5033527;28;20238;-87
2022/11/30 01:31:01;;;;;;;24.20;12.57;;;1.90;99.90;;;;;;5033637;28;20200;-89
2022/11/30 01:33:28;;;;;;;25.10;12.40;;;1.90;99.90;;;;;;5033534;28;20659;-89
2022/11/30 01:36:02;;;;;;;24.97;12.67;;;1.90;99.90;;;;;;5041090;28;20195;-89
2022/11/30 01:38:40;;;;;;;25.10;13.13;;;2.00;99.90;;;;;;5036956;28;20223;-91
2022/11/30 01:41:10;;;;;;;26.43;12.60;;;2.00;99.90;;;;;;5036602;28;20179;-85
2022/11/30 01:46:43;;;;;;;25.73;12.53;;;2.10;99.90;;;;;;5035478;22;20237;-87
2022/11/30 01:49:40;;;;;;;24.77;12.60;;;2.10;99.90;;;;;;4953869;28;20558;-84
2022/11/30 01:52:27;;;;;;;27.23;12.37;;;2.00;99.90;;;;;;4937835;28;20352;-86
2022/11/30 01:55:09;;;;;;;26.40;13.27;;;2.00;99.90;;;;;;4953886;28;20208;-82
2022/11/30 01:57:49;;;;;;;23.23;11.83;;;2.00;99.90;;;;;;4954161;29;20215;-85
2022/11/30 02:00:17;;;;;;;25.20;12.20;;;2.00;99.90;;;;;;4953912;29;20201;-79
2022/11/30 02:03:10;;;;;;;24.77;12.60;;;2.10;99.90;;;;;;4944669;28;20269;-80
2022/11/30 02:05:40;;;;;;;26.03;12.43;;;2.10;99.90;;;;;;4956633;28;20614;-88
2022/11/30 02:08:09;;;;;;;25.60;12.03;;;2.10;99.90;;;;;;4957722;28;20232;-89
2022/11/30 02:10:43;;;;;;;25.47;12.70;;;2.10;99.90;;;;;;4953924;28;21379;-89
2022/11/30 02:13:40;;;;;;;25.57;12.63;;;2.20;99.90;;;;;;4953565;28;20590;-86
2022/11/30 02:16:24;;;;;;;24.80;12.50;;;2.20;99.90;;;;;;4937115;29;20297;-84
2022/11/30 02:19:14;;;;;;;23.40;11.93;;;2.10;99.90;;;;;;4937471;29;20230;-89
2022/11/30 02:21:58;;;;;;;26.07;12.23;;;2.10;99.90;;;;;;4953521;28;20201;-88
2022/11/30 02:24:54;;;;;;;25.03;12.17;;;2.10;99.90;;;;;;4953313;28;20213;-90
2022/11/30 02:27:36;;;;;;;24.93;13.10;;;2.10;99.90;;;;;;4972506;28;20199;-88
2022/11/30 02:30:10;;;;;;;24.50;12.87;;;2.00;99.90;;;;;;4996487;28;20243;-86
2022/11/30 02:32:55;;;;;;;24.23;12.93;;;2.10;99.90;;;;;;5014081;28;20547;-86
2022/11/30 02:35:26;;;;;;;25.80;12.47;;;2.20;99.90;;;;;;5012465;28;20212;-85
2022/11/30 02:37:55;;;;;;;28.20;13.23;;;2.20;99.90;;;;;;5013773;28;20274;-85
2022/11/30 02:40:22;;;;;;;23.97;11.97;;;2.30;99.90;;;;;;5012723;28;20209;-85
2022/11/30 02:42:51;;;;;;;26.67;12.27;;;2.20;99.90;;;;;;5012623;28;20203;-85
2022/11/30 02:45:31;;;;;;;29.13;12.73;;;2.20;99.90;;;;;;5013621;28;20566;-81
2022/11/30 02:48:06;;;;;;;28.80;12.60;;;2.10;99.90;;;;;;5012618;28;20187;-78
2022/11/30 02:50:53;;;;;;;26.37;12.30;;;2.10;99.90;;;;;;5012466;28;20231;-78
2022/11/30 02:53:20;;;;;;;23.80;11.63;;;2.10;99.90;;;;;;4992924;28;20639;-80
2022/11/30 02:55:47;;;;;;;23.43;11.53;;;2.00;99.90;;;;;;4993829;28;20708;-79
2022/11/30 02:58:16;;;;;;;23.53;11.73;;;1.90;99.90;;;;;;4993924;28;20191;-77
2022/11/30 03:00:42;;;;;;;22.57;12.17;;;2.00;99.90;;;;;;4992588;28;20588;-84
2022/11/30 03:03:09;;;;;;;22.07;12.07;;;1.80;99.90;;;;;;5011932;28;20202;-80
2022/11/30 03:05:37;;;;;;;24.67;12.50;;;1.70;99.90;;;;;;5013558;28;20188;-80
2022/11/30 03:08:04;;;;;;;23.13;11.63;;;1.90;99.90;;;;;;5013253;28;20299;-80
2022/11/30 03:10:31;;;;;;;21.27;11.37;;;1.90;99.90;;;;;;5013907;28;20194;-85
2022/11/30 03:12:59;;;;;;;23.70;11.90;;;1.80;99.90;;;;;;5013185;28;20225;-87
2022/11/30 03:15:26;;;;;;;23.27;11.30;;;1.90;99.90;;;;;;5003587;28;20205;-86
2022/11/30 03:17:52;;;;;;;23.87;12.57;;;1.70;99.90;;;;;;4976443;28;20209;-84
2022/11/30 03:20:20;;;;;;;25.73;13.03;;;1.70;99.90;;;;;;5004818;28;20311;-87
2022/11/30 03:22:46;;;;;;;26.20;12.43;;;1.80;99.90;;;;;;4995954;28;20209;-86
2022/11/30 03:25:13;;;;;;;24.83;12.47;;;1.70;99.90;;;;;;5012870;28;20211;-86
2022/11/30 03:27:40;;;;;;;26.70;12.60;;;1.80;99.90;;;;;;5012479;28;20188;-80
2022/11/30 03:30:07;;;;;;;27.93;13.10;;;1.90;99.90;;;;;;5013185;28;20202;-82
2022/11/30 03:32:34;;;;;;;24.13;12.43;;;2.00;99.90;;;;;;5011923;28;20200;-81
2022/11/30 03:35:01;;;;;;;25.10;12.67;;;2.00;99.90;;;;;;5013148;28;20192;-82
2022/11/30 03:37:29;;;;;;;25.87;13.20;;;2.20;99.90;;;;;;5012953;28;20196;-83
2022/11/30 03:39:56;;;;;;;25.20;12.40;;;2.10;99.90;;;;;;5015871;28;20624;-85
2022/11/30 03:42:24;;;;;;;25.13;12.60;;;2.20;99.90;;;;;;5018189;28;20230;-80
2022/11/30 03:44:51;;;;;;;23.73;12.17;;;2.10;99.90;;;;;;4999184;28;20224;-79
2022/11/30 03:47:18;;;;;;;24.63;12.40;;;2.10;99.90;;;;;;5036766;28;20644;-80
2022/11/30 03:49:44;;;;;;;23.60;12.03;;;2.10;99.90;;;;;;5036036;28;20198;-83
2022/11/30 03:52:11;;;;;;;27.50;13.03;;;2.20;99.90;;;;;;5035498;28;20225;-82
2022/11/30 03:54:38;;;;;;;26.20;13.10;;;2.10;99.90;;;;;;5018619;28;20194;-81
2022/11/30 03:57:05;;;;;;;26.07;13.27;;;2.20;99.90;;;;;;5018337;28;20195;-80
2022/11/30 03:59:32;;;;;;;26.37;13.23;;;2.10;99.90;;;;;;5035242;28;20211;-81
2022/11/30 04:01:59;;;;;;;26.87;13.30;;;2.10;99.90;;;;;;5018746;28;20728;-83
2022/11/30 04:04:25;;;;;;;36.80;14.10;;;2.10;99.90;;;;;;5036212;28;20661;-80
2022/11/30 04:06:52;;;;;;;22.90;12.33;;;2.10;99.90;;;;;;5018769;28;20318;-83
2022/11/30 04:09:19;;;;;;;23.67;12.70;;;2.10;99.90;;;;;;5034935;28;20195;-83
2022/11/30 04:11:46;;;;;;;24.47;12.30;;;2.10;99.90;;;;;;5019702;28;20199;-86
2022/11/30 04:14:13;;;;;;;24.50;12.60;;;2.10;99.90;;;;;;5038162;28;20195;-86
2022/11/30 04:16:40;;;;;;;25.90;12.87;;;2.10;99.90;;;;;;5036850;28;20681;-84
2022/11/30 04:19:07;;;;;;;26.43;13.30;;;2.10;99.90;;;;;;5036983;28;20589;-81
2022/11/30 04:21:33;;;;;;;32.60;14.17;;;2.10;99.90;;;;;;5018573;28;20209;-84
2022/11/30 04:24:00;;;;;;;23.60;12.20;;;2.20;99.90;;;;;;5018280;28;20195;-78
2022/11/30 04:26:27;;;;;;;26.47;13.17;;;2.10;99.90;;;;;;5030041;28;20199;-78
2022/11/30 04:28:54;;;;;;;26.53;13.30;;;2.20;99.90;;;;;;5014893;28;20199;-84
2022/11/30 04:31:21;;;;;;;24.57;13.07;;;2.30;99.90;;;;;;5014419;28;20209;-86
2022/11/30 04:33:52;;;;;;;23.10;11.97;;;2.30;99.90;;;;;;4998573;28;20716;-79
2022/11/30 04:36:20;;;;;;;26.47;13.30;;;2.30;99.90;;;;;;4998655;28;20633;-80
2022/11/30 04:38:47;;;;;;;25.43;12.80;;;2.30;99.90;;;;;;5032341;28;20207;-81
2022/11/30 04:41:14;;;;;;;25.60;12.97;;;2.40;99.90;;;;;;5017966;28;20209;-85
2022/11/30 04:43:41;;;;;;;29.13;14.30;;;2.40;99.90;;;;;;5018823;28;20302;-79
2022/11/30 04:46:08;;;;;;;25.33;13.17;;;2.40;99.90;;;;;;5014453;28;20236;-83
2022/11/30 04:48:35;;;;;;;25.40;12.50;;;2.40;99.90;;;;;;5030823;28;20203;-78
2022/11/30 04:51:04;;;;;;;26.27;13.07;;;2.40;99.90;;;;;;5015020;28;20279;-82
2022/11/30 04:53:36;;;;;;;27.00;13.60;;;2.50;99.90;;;;;;5031077;28;20391;-84
2022/11/30 04:56:08;;;;;;;25.10;12.63;;;2.40;99.90;;;;;;5015852;28;20212;-83
2022/11/30 04:58:35;;;;;;;25.30;12.67;;;2.50;99.90;;;;;;5014844;28;20207;-80
2022/11/30 05:01:02;;;;;;;25.67;13.00;;;2.50;99.90;;;;;;5014226;28;20204;-81
2022/11/30 05:03:29;;;;;;;26.00;12.77;;;2.50;99.90;;;;;;5015790;28;20200;-83
2022/11/30 05:05:56;;;;;;;27.53;13.47;;;2.40;99.90;;;;;;5014472;28;20669;-79
2022/11/30 05:08:25;;;;;;;26.40;13.03;;;2.40;99.90;;;;;;5000668;28;20217;-80
2022/11/30 05:10:53;;;;;;;23.43;12.17;;;2.40;99.90;;;;;;4995198;28;20201;-81
2022/11/30 05:13:22;;;;;;;26.90;12.93;;;2.30;99.90;;;;;;4994221;28;20197;-82
2022/11/30 05:15:49;;;;;;;23.90;12.13;;;2.30;99.90;;;;;;4994288;28;20193;-83
2022/11/30 05:18:16;;;;;;;23.87;12.23;;;2.30;99.90;;;;;;4995966;28;20181;-82
2022/11/30 05:20:48;;;;;;;25.60;12.57;;;2.30;99.90;;;;;;4995416;28;20322;-83
2022/11/30 05:23:16;;;;;;;23.97;12.10;;;2.30;99.90;;;;;;4994654;28;20259;-83
2022/11/30 05:25:43;;;;;;;21.40;11.73;;;2.30;99.90;;;;;;4994452;28;20271;-83
2022/11/30 05:28:11;;;;;;;26.10;12.83;;;2.30;99.90;;;;;;4994395;28;20638;-83
2022/11/30 05:30:40;;;;;;;25.07;12.00;;;2.30;99.90;;;;;;4995910;28;20276;-83
2022/11/30 05:33:07;;;;;;;22.07;11.57;;;2.40;99.90;;;;;;4994111;28;20280;-82
2022/11/30 05:35:34;;;;;;;22.47;11.60;;;2.30;99.90;;;;;;4993153;28;20217;-83
2022/11/30 05:38:01;;;;;;;26.30;12.97;;;2.40;99.90;;;;;;5010003;28;20192;-78
2022/11/30 05:40:31;;;;;;;24.80;11.93;;;2.40;99.90;;;;;;5010104;28;20248;-82
2022/11/30 05:43:00;;;;;;;26.23;12.33;;;2.40;99.90;;;;;;4994006;28;20201;-78
2022/11/30 05:45:27;;;;;;;23.50;11.70;;;2.30;99.90;;;;;;5009826;28;20287;-79
2022/11/30 05:47:54;;;;;;;23.10;11.83;;;2.30;99.90;;;;;;4993867;28;20197;-80
2022/11/30 05:50:21;;;;;;;22.07;11.87;;;2.30;99.90;;;;;;4993825;28;20292;-80
2022/11/30 05:52:50;;;;;;;24.17;11.90;;;2.30;99.90;;;;;;4995116;28;20193;-83
2022/11/30 05:55:17;;;;;;;26.67;12.40;;;2.30;99.90;;;;;;4993454;28;20200;-79
2022/11/30 05:57:44;;;;;;;26.00;12.60;;;2.40;99.90;;;;;;4993594;28;20200;-85
2022/11/30 06:00:11;;;;;;;24.97;12.47;;;2.40;99.90;;;;;;4993245;28;20603;-79
2022/11/30 06:02:38;;;;;;;22.27;12.13;;;2.40;99.90;;;;;;4995103;28;20283;-79
2022/11/30 06:05:06;;;;;;;24.13;12.13;;;2.40;99.90;;;;;;4994587;28;20662;-78
2022/11/30 06:07:33;;;;;;;25.17;12.77;;;2.40;99.90;;;;;;4977573;28;20231;-79
2022/11/30 06:10:01;;;;;;;27.07;12.33;;;2.40;99.90;;;;;;4993282;28;20193;-79
2022/11/30 06:12:27;;;;;;;23.77;12.10;;;2.40;99.90;;;;;;4993097;28;20205;-80
2022/11/30 06:14:54;;;;;;;25.07;12.43;;;2.30;99.90;;;;;;4993233;28;20204;-78
2022/11/30 06:17:21;;;;;;;29.30;12.53;;;2.30;99.90;;;;;;5009836;28;20643;-78
2022/11/30 06:19:49;;;;;;;24.73;12.40;;;2.40;99.90;;;;;;5009882;28;20273;-77
2022/11/30 06:22:16;;;;;;;26.07;12.67;;;2.40;99.90;;;;;;4993058;28;20208;-81
2022/11/30 06:24:43;;;;;;;25.40;13.00;;;2.40;99.90;;;;;;4976712;28;20676;-79
2022/11/30 06:27:11;;;;;;;24.93;12.97;;;2.40;99.90;;;;;;4993116;28;20562;-83
2022/11/30 06:29:38;;;;;;;26.70;13.13;;;2.30;99.90;;;;;;4993071;28;20224;-79
2022/11/30 06:32:08;;;;;;;26.97;13.50;;;2.30;99.90;;;;;;4993848;28;20193;-81
2022/11/30 06:34:35;;;;;;;29.57;13.93;;;2.20;99.90;;;;;;4973449;28;20240;-87
2022/11/30 06:37:02;;;;;;;29.20;13.80;;;2.40;99.90;;;;;;4997419;28;20196;-86
2022/11/30 06:39:29;;;;;;;25.43;13.37;;;2.40;99.90;;;;;;4993797;28;20218;-86
2022/11/30 06:42:25;;;;;;;29.10;13.60;;;2.30;99.90;;;;;;5009603;28;20193;-92
2022/11/30 06:44:51;;;;;;;27.47;13.57;;;2.40;99.90;;;;;;5009172;28;20618;-84
2022/11/30 06:47:18;;;;;;;29.97;14.93;;;2.20;99.90;;;;;;4993250;28;20196;-77
2022/11/30 06:49:45;;;;;;;31.03;14.63;;;2.30;99.90;;;;;;4994063;28;20199;-82
2022/11/30 06:52:12;;;;;;;29.40;13.90;;;2.40;99.90;;;;;;5009037;28;20298;-89
2022/11/30 06:54:39;;;;;;;28.30;13.43;;;2.50;99.90;;;;;;4993997;28;20216;-79
2022/11/30 06:57:06;;;;;;;27.33;14.13;;;2.30;99.90;;;;;;4990697;28;20657;-79
2022/11/30 06:59:36;;;;;;;28.80;13.40;;;2.30;99.90;;;;;;5008958;28;20247;-77
2022/11/30 07:02:03;;;;;;;28.53;14.17;;;2.30;99.90;;;;;;4993916;28;20198;-76
2022/11/30 07:04:37;;;;;;;29.93;14.63;;;2.40;99.90;;;;;;4989699;28;20196;-78
2022/11/30 07:07:06;;;;;;;29.53;14.07;;;2.30;99.90;;;;;;4979204;28;20231;-89
2022/11/30 07:09:33;;;;;;;27.27;14.00;;;2.20;99.90;;;;;;5008261;28;20200;-86
2022/11/30 07:12:01;;;;;;;27.77;14.07;;;2.30;99.90;;;;;;4995017;28;20649;-94
2022/11/30 07:14:29;;;;;;;29.10;13.83;;;2.30;99.90;;;;;;4998413;28;20200;-94
2022/11/30 07:17:03;;;;;;;30.20;14.43;;;2.20;99.90;;;;;;4998050;28;20208;-77
2022/11/30 07:19:33;;;;;;;30.27;13.93;;;2.20;99.90;;;;;;4979151;28;20243;-87
2022/11/30 07:22:01;;;;;;;33.17;15.17;;;2.20;99.90;;;;;;4990712;28;20272;-77
2022/11/30 07:27:14;;;;;;;26.83;13.23;;;2.30;99.90;;;;;;4995764;28;20200;-72
2022/11/30 07:29:41;;;;;;;30.30;14.90;;;2.20;99.90;;;;;;5013020;28;20200;-80
2022/11/30 07:32:08;;;;;;;29.10;14.57;;;2.20;99.90;;;;;;4994894;28;20814;-90
2022/11/30 07:34:35;;;;;;;30.97;14.53;;;2.20;99.90;;;;;;4995227;28;20288;-74
2022/11/30 07:37:02;;;;;;;28.93;14.10;;;2.20;99.90;;;;;;4991628;28;20283;-73
2022/11/30 07:39:29;;;;;;;28.97;14.57;;;2.30;99.90;;;;;;4997588;28;20188;-77
2022/11/30 07:41:55;;;;;;;29.80;14.53;;;2.30;99.90;;;;;;4997591;28;20299;-82
2022/11/30 07:44:22;;;;;;;29.17;13.73;;;2.30;99.90;;;;;;4997149;28;20227;-80
2022/11/30 07:46:49;;;;;;;26.33;13.30;;;2.30;99.90;;;;;;4996722;28;20209;-81
2022/11/30 07:49:16;;;;;;;27.07;13.47;;;2.20;99.90;;;;;;4996084;28;20193;-80
2022/11/30 07:51:43;;;;;;;34.70;14.23;;;2.10;99.90;;;;;;5012656;28;20674;-81
2022/11/30 07:54:10;;;;;;;26.13;13.53;;;2.20;99.90;;;;;;5011366;28;20204;-81
2022/11/30 07:56:40;;;;;;;26.00;13.73;;;2.20;99.90;;;;;;4993061;28;20271;-77
2022/11/30 07:59:14;;;;;;;27.00;13.40;;;2.10;99.90;;;;;;4989335;28;20632;-82
2022/11/30 08:01:41;;;;;;;27.77;13.47;;;2.10;99.90;;;;;;5010613;28;20248;-81
2022/11/30 08:04:12;;;;;;;29.40;14.00;;;2.20;99.90;;;;;;4994274;28;20247;-77
2022/11/30 08:06:39;;;;;;;28.53;14.50;;;2.20;99.90;;;;;;4997043;28;20199;-82
2022/11/30 08:09:06;;;;;;;27.87;14.10;;;2.30;99.90;;;;;;5011839;28;20197;-82
2022/11/30 08:11:39;;;;;;;28.80;14.53;;;2.20;99.90;;;;;;4994962;28;20349;-78
2022/11/30 08:14:06;;;;;;;27.33;14.13;;;2.10;99.90;;;;;;4996923;28;20209;-77
2022/11/30 08:16:38;;;;;;;27.80;14.20;;;2.10;99.90;;;;;;4994859;28;20189;-83
2022/11/30 08:19:05;;;;;;;27.03;13.73;;;2.20;99.90;;;;;;5008012;28;20642;-78
2022/11/30 08:21:32;;;;;;;33.90;14.67;;;2.20;99.90;;;;;;4984320;28;20221;-80
2022/11/30 08:24:03;;;;;;;28.17;14.20;;;2.30;99.90;;;;;;4992788;28;20193;-77
2022/11/30 08:26:32;;;;;;;29.97;14.70;;;2.30;99.90;;;;;;4993633;28;20192;-78
2022/11/30 08:29:00;;;;;;;27.83;13.87;;;2.40;99.90;;;;;;5011124;28;20210;-83
2022/11/30 08:31:29;;;;;;;27.67;14.00;;;2.20;99.90;;;;;;4976756;28;20201;-81
2022/11/30 08:33:59;;;;;;;30.07;13.93;;;2.20;99.90;;;;;;5008316;28;20189;-82
2022/11/30 08:36:28;;;;;;;27.30;13.37;;;2.20;99.90;;;;;;4993321;28;20221;-80
2022/11/30 08:38:57;;;;;;;27.30;13.57;;;2.10;99.90;;;;;;4994632;28;20663;-80
2022/11/30 08:41:24;;;;;;;26.33;13.23;;;2.10;99.90;;;;;;4992444;28;20274;-82
2022/11/30 08:43:51;;;;;;;26.07;13.10;;;2.10;99.90;;;;;;4994948;28;20193;-78
2022/11/30 08:46:21;;;;;;;27.53;12.80;;;2.20;99.90;;;;;;5009753;28;20231;-76
2022/11/30 08:49:08;;;;;;;24.40;13.17;;;2.10;99.90;;;;;;5009404;28;20191;-76
2022/11/30 08:51:53;;;;;;;31.53;14.23;;;2.20;99.90;;;;;;5001270;28;20238;-81
2022/11/30 08:54:44;;;;;;;27.43;13.60;;;2.20;99.90;;;;;;4983137;28;20568;-80
2022/11/30 08:57:18;;;;;;;24.63;12.80;;;2.20;99.90;;;;;;4990475;28;20661;-79
2022/11/30 08:59:45;;;;;;;25.67;13.30;;;2.10;99.90;;;;;;4988681;28;20193;-78
2022/11/30 09:02:17;;;;;;;25.00;13.17;;;2.20;99.90;;;;;;4990564;28;20220;-79
2022/11/30 09:04:47;;;;;;;23.87;12.60;;;2.10;99.90;;;;;;4990433;28;20197;-82
2022/11/30 09:07:15;;;;;;;27.63;13.90;;;2.10;99.90;;;;;;4990965;28;20232;-84
2022/11/30 09:09:42;;;;;;;26.83;12.67;;;2.10;99.90;;;;;;5006176;28;20200;-86
2022/11/30 09:12:09;;;;;;;27.07;13.13;;;2.00;99.90;;;;;;4991191;28;20201;-77
2022/11/30 09:14:36;;;;;;;33.03;13.90;;;2.10;99.90;;;;;;4993661;28;20199;-77
2022/11/30 09:17:03;;;;;;;27.37;13.57;;;2.00;99.90;;;;;;4992425;28;20658;-76
2022/11/30 09:19:30;;;;;;;29.20;13.87;;;1.90;99.90;;;;;;4992865;28;20279;-75
2022/11/30 09:21:59;;;;;;;27.57;13.77;;;2.00;99.90;;;;;;4991292;28;20216;-82
2022/11/30 09:24:26;;;;;;;27.10;13.97;;;2.10;99.90;;;;;;5006933;28;20200;-75
2022/11/30 09:26:56;;;;;;;30.27;14.83;;;2.10;99.90;;;;;;5010181;28;20204;-77
2022/11/30 09:29:23;;;;;;;28.20;13.40;;;2.10;99.90;;;;;;5004518;28;20200;-77
2022/11/30 09:31:50;;;;;;;26.70;14.33;;;2.10;99.90;;;;;;4995143;28;20196;-81
2022/11/30 09:34:17;;;;;;;26.20;13.00;;;2.20;99.90;;;;;;4992154;28;20653;-79
2022/11/30 09:36:44;;;;;;;28.53;14.17;;;2.10;99.90;;;;;;4990056;28;20189;-80
2022/11/30 09:39:11;;;;;;;27.00;13.73;;;2.20;99.90;;;;;;4986489;28;20204;-82
2022/11/30 09:42:15;;;;;;;24.90;13.17;;;2.20;99.90;;;;;;4986770;28;20702;-81
2022/11/30 09:44:42;;;;;;;26.23;13.57;;;2.20;99.90;;;;;;4989138;28;20247;-80
2022/11/30 09:47:23;;;;;;;23.20;12.13;;;2.30;99.90;;;;;;5008096;28;20200;-83
2022/11/30 09:50:00;;;;;;;24.93;11.63;;;2.20;99.90;;;;;;4990876;28;20680;-79
2022/11/30 09:52:40;;;;;;;24.60;12.07;;;2.00;99.90;;;;;;4990853;28;20204;-80
2022/11/30 09:55:10;;;;;;;23.23;10.93;;;1.90;99.90;;;;;;4989176;28;20545;-82
2022/11/30 09:57:43;;;;;;;22.57;11.47;;;1.90;99.90;;;;;;5005750;28;20204;-82
2022/11/30 10:00:22;;;;;;;25.93;11.60;;;2.00;99.90;;;;;;4993262;28;20231;-88
2022/11/30 10:02:51;;;;;;;25.07;11.40;;;1.90;99.90;;;;;;4992400;28;20208;-83
2022/11/30 10:05:23;;;;;;;19.73;10.60;;;2.00;99.90;;;;;;5008110;28;20247;-83
2022/11/30 10:08:12;;;;;;;21.70;10.37;;;2.00;99.90;;;;;;5006643;28;20221;-83
2022/11/30 10:11:00;;;;;;;23.33;10.73;;;2.00;99.90;;;;;;4993161;28;20235;-85
2022/11/30 10:13:47;;;;;;;25.20;10.17;;;2.00;99.90;;;;;;5009884;28;20211;-82
2022/11/30 10:16:52;;;;;;;20.33;10.23;;;2.00;99.90;;;;;;4991318;28;20204;-81
2022/11/30 10:19:50;;;;;;;22.43;9.83;;;2.10;99.90;;;;;;5007546;28;20200;-78
2022/11/30 10:22:24;;;;;;;20.27;9.90;;;2.00;99.90;;;;;;5006726;28;20240;-78
2022/11/30 10:25:26;;;;;;;20.27;10.50;;;2.10;99.90;;;;;;5006310;28;20197;-76
2022/11/30 10:28:00;;;;;;;22.37;11.03;;;2.00;99.90;;;;;;4930599;29;20264;-82
2022/11/30 10:30:48;;;;;;;24.43;11.77;;;2.00;99.90;;;;;;4911650;29;20219;-84
2022/11/30 10:33:22;;;;;;;24.43;12.33;;;2.00;99.90;;;;;;4915152;29;20631;-80
2022/11/30 10:36:02;;;;;;;24.13;12.40;;;2.10;99.90;;;;;;4914819;29;20251;-84
2022/11/30 10:38:35;;;;;;;24.03;11.73;;;2.10;99.90;;;;;;4930469;29;20224;-85
2022/11/30 10:41:18;;;;;;;35.13;13.57;;;2.10;99.90;;;;;;4931021;29;20230;-85
2022/11/30 10:43:54;;;;;;;24.43;12.60;;;2.10;99.90;;;;;;4931768;29;20195;-83
2022/11/30 10:46:26;;;;;;;30.43;14.03;;;2.10;99.90;;;;;;4927202;29;20202;-83
2022/11/30 10:49:13;;;;;;;27.93;12.87;;;2.00;99.90;;;;;;4930583;29;20234;-82
2022/11/30 10:51:43;;;;;;;25.10;12.77;;;2.00;99.90;;;;;;4927451;29;20207;-88
2022/11/30 10:54:16;;;;;;;26.53;12.23;;;1.90;99.90;;;;;;4902715;29;20606;-83
2022/11/30 10:56:44;;;;;;;24.60;11.73;;;2.00;99.90;;;;;;4917184;29;20267;-90
2022/11/30 10:59:16;;;;;;;23.73;11.60;;;2.10;99.90;;;;;;4925842;29;20221;-82
2022/11/30 11:01:43;;;;;;;21.77;11.13;;;2.00;99.90;;;;;;4913329;29;20218;-81
2022/11/30 11:04:17;;;;;;;25.03;12.40;;;1.90;99.90;;;;;;4970247;28;20209;-73
2022/11/30 11:06:58;;;;;;;27.77;11.50;;;1.90;99.90;;;;;;5005756;28;20188;-72
2022/11/30 11:09:48;;;;;;;20.67;10.30;;;2.00;99.90;;;;;;5006147;28;20626;-78
2022/11/30 11:12:27;;;;;;;26.07;10.97;;;2.00;99.90;;;;;;4991648;28;20203;-75
2022/11/30 11:15:20;;;;;;;23.70;11.23;;;2.00;99.90;;;;;;4994075;28;20200;-77
2022/11/30 11:17:48;;;;;;;22.83;11.30;;;2.00;99.90;;;;;;4991186;28;20193;-73
2022/11/30 11:20:38;;;;;;;25.03;11.33;;;2.00;99.90;;;;;;4991018;28;20251;-80
2022/11/30 11:23:04;;;;;;;24.30;12.00;;;2.00;99.90;;;;;;4992093;28;20234;-76
2022/11/30 11:25:36;;;;;;;24.80;11.87;;;2.10;99.90;;;;;;5006582;28;20551;-74
2022/11/30 11:28:16;;;;;;;22.57;10.83;;;2.10;99.90;;;;;;4984558;28;20201;-74
2022/11/30 11:30:43;;;;;;;19.50;10.20;;;2.00;99.90;;;;;;4987670;28;20200;-83
2022/11/30 11:33:10;;;;;;;28.57;10.90;;;2.00;99.90;;;;;;5009637;28;20188;-79
2022/11/30 11:35:51;;;;;;;20.77;10.67;;;2.10;99.90;;;;;;5009324;28;20218;-82
2022/11/30 11:38:27;;;;;;;22.43;11.40;;;2.20;99.90;;;;;;5010720;28;20659;-76
2022/11/30 11:41:04;;;;;;;20.80;10.30;;;2.10;99.90;;;;;;4992286;28;20225;-77
2022/11/30 11:43:33;;;;;;;22.67;10.57;;;2.10;99.90;;;;;;4993330;28;20583;-85
2022/11/30 11:46:10;;;;;;;23.37;10.53;;;2.00;99.90;;;;;;5007782;28;20716;-84
2022/11/30 11:48:54;;;;;;;20.57;10.07;;;2.00;99.90;;;;;;4976520;28;20641;-78
2022/11/30 11:51:32;;;;;;;19.87;9.97;;;2.00;99.90;;;;;;5006486;28;20197;-77
2022/11/30 11:54:05;;;;;;;19.83;9.53;;;2.10;99.90;;;;;;4987390;28;20189;-76
2022/11/30 11:56:35;;;;;;;20.40;10.77;;;2.20;99.90;;;;;;5006234;28;20205;-79
2022/11/30 11:59:18;;;;;;;22.30;10.33;;;2.20;99.90;;;;;;4992528;28;20193;-79
2022/11/30 12:02:00;;;;;;;20.40;9.53;;;2.20;99.90;;;;;;5011723;28;20229;-81
2022/11/30 12:04:32;;;;;;;19.90;9.70;;;2.20;99.90;;;;;;4995763;28;20196;-78
2022/11/30 12:07:09;;;;;;;19.53;10.20;;;2.10;99.90;;;;;;4993276;28;20220;-76
2022/11/30 12:09:53;;;;;;;21.97;10.23;;;2.10;99.90;;;;;;4997069;28;20201;-85
2022/11/30 12:12:20;;;;;;;20.50;9.57;;;2.10;99.90;;;;;;4993719;28;20200;-84
2022/11/30 12:14:47;;;;;;;21.00;9.90;;;2.10;99.90;;;;;;4979313;28;20213;-72
2022/11/30 12:17:41;;;;;;;19.97;10.17;;;2.10;99.90;;;;;;5007905;28;20266;-73
2022/11/30 12:20:32;;;;;;;19.17;10.37;;;2.10;99.90;;;;;;5009470;28;20201;-81
2022/11/30 12:23:10;;;;;;;19.77;9.80;;;2.20;99.90;;;;;;5011741;28;20677;-81
2022/11/30 12:26:01;;;;;;;22.50;10.10;;;2.10;99.90;;;;;;5011279;28;20208;-81
2022/11/30 12:28:38;;;;;;;25.90;10.50;;;2.20;99.90;;;;;;4996513;28;20603;-80
2022/11/30 12:31:16;;;;;;;20.50;10.43;;;2.30;99.90;;;;;;4996441;28;20243;-83
2022/11/30 12:34:06;;;;;;;20.60;10.60;;;2.30;99.90;;;;;;4995029;28;20578;-81
2022/11/30 12:37:01;;;;;;;24.80;10.77;;;2.30;99.90;;;;;;4993410;28;20200;-80
2022/11/30 12:39:37;;;;;;;24.30;10.60;;;2.30;99.90;;;;;;4992772;28;20251;-86
2022/11/30 12:42:21;;;;;;;19.53;10.27;;;2.30;99.90;;;;;;4993138;28;20216;-80
2022/11/30 12:44:54;;;;;;;18.77;10.17;;;2.30;99.90;;;;;;4993530;28;20258;-83
2022/11/30 12:47:42;;;;;;;20.67;10.53;;;2.30;99.90;;;;;;5011074;28;20210;-76
2022/11/30 12:50:38;;;;;;;21.53;11.30;;;2.40;99.90;;;;;;5024026;28;21907;-75
2022/11/30 12:53:10;;;;;;;20.53;10.83;;;2.30;99.90;;;;;;4990990;28;20273;-74
2022/11/30 12:55:54;;;;;;;22.10;11.30;;;2.30;99.90;;;;;;5008519;28;20201;-80
2022/11/30 12:58:50;;;;;;;20.77;10.87;;;2.30;99.90;;;;;;4994653;28;20204;-74
2022/11/30 13:01:32;;;;;;;21.20;10.20;;;2.40;99.90;;;;;;4993885;28;20259;-83
2022/11/30 13:04:07;;;;;;;18.80;10.27;;;2.40;99.90;;;;;;4977879;28;20196;-84
2022/11/30 13:06:52;;;;;;;23.43;10.83;;;2.40;99.90;;;;;;4992325;28;20699;-84
2022/11/30 13:09:47;;;;;;;20.67;10.50;;;2.40;99.90;;;;;;5000358;28;20201;-80